Time;durP1;ratioP1;P1;durP2;ratioP2;P2;SDS_P1;SDS_P2;PMS_P1;PMS_P2;Temp;Humidity;BMP_temperature;BMP_pressure;BME280_temperature;BME280_humidity;BME280_pressure;Samples;Min_cycle;Max_cycle;Signal;HPM_P1;HPM_P2
2024/02/12 00:02:23;;;;;;;;;;;;;;;15.14;66.06;98504.44;5014117;28;20386;-83
2024/02/12 00:04:49;;;;;;;;;;;;;;;15.14;66.06;98504.44;5014220;28;20342;-82
2024/02/12 00:07:18;;;;;;;;;;;;;;;15.17;65.99;98488.00;5012822;28;20456;-84
2024/02/12 00:09:43;;;;;;;;;;;;;;;15.20;66.28;98513.31;5012879;28;19972;-83
2024/02/12 00:12:11;;;;;;;;;;;;;;;15.14;66.55;98523.03;5014249;28;19984;-83
2024/02/12 00:14:36;;;;;;;;;;;;;;;15.13;66.53;98523.28;5012909;28;19953;-84
2024/02/12 00:17:04;;;;;;;;;;;;;;;15.11;67.04;98515.53;5013923;28;20011;-83
2024/02/12 00:19:30;;;;;;;;;;;;;;;15.09;67.09;98516.81;5012560;28;19913;-84
2024/02/12 00:21:56;;;;;;;;;;;;;;;15.11;67.02;98507.56;5012435;28;20401;-83
2024/02/12 00:24:22;;;;;;;;;;;;;;;15.11;66.57;98510.22;5013876;28;20314;-83
2024/02/12 00:26:47;;;;;;;;;;;;;;;15.13;66.75;98507.31;5013893;28;19917;-84
2024/02/12 00:29:14;;;;;;;;;;;;;;;15.11;66.67;98510.22;5012939;28;19921;-83
2024/02/12 00:31:39;;;;;;;;;;;;;;;15.18;66.32;98491.47;5012590;28;19914;-84
2024/02/12 00:34:05;;;;;;;;;;;;;;;15.12;66.68;98495.88;5012517;28;20314;-83
2024/02/12 00:36:30;;;;;;;;;;;;;;;15.13;66.46;98497.50;5013697;28;19914;-84
2024/02/12 00:38:55;;;;;;;;;;;;;;;15.16;66.61;98491.72;5013888;28;20409;-84
2024/02/12 00:41:22;;;;;;;;;;;;;;;15.09;66.92;98498.19;5012448;28;20032;-84
2024/02/12 00:43:47;;;;;;;;;;;;;;;15.12;66.85;98495.06;5013542;28;19914;-84
2024/02/12 00:46:15;;;;;;;;;;;;;;;15.11;66.62;98485.47;5013406;28;19921;-84
2024/02/12 00:48:42;;;;;;;;;;;;;;;15.12;66.44;98487.09;5012159;28;20002;-84
2024/02/12 00:51:07;;;;;;;;;;;;;;;15.07;67.74;98489.63;5013442;28;19914;-84
2024/02/12 00:53:33;;;;;;;;;;;;;;;15.02;67.75;98481.56;5011947;28;20374;-84
2024/02/12 00:55:58;;;;;;;;;;;;;;;15.06;67.49;98474.72;5013129;28;20011;-84
2024/02/12 00:58:24;;;;;;;;;;;;;;;15.08;66.86;98470.78;5012130;28;19976;-83
2024/02/12 01:00:50;;;;;;;;;;;;;;;15.10;67.32;98465.25;5013538;28;20008;-84
2024/02/12 01:03:15;;;;;;;;;;;;;;;15.08;67.66;98468.13;5011829;28;19917;-83
2024/02/12 01:05:41;;;;;;;;;;;;;;;15.07;67.59;98471.84;5011932;28;19918;-85
2024/02/12 01:08:07;;;;;;;;;;;;;;;15.10;67.04;98463.41;5012014;28;19920;-83
2024/02/12 01:10:32;;;;;;;;;;;;;;;15.10;67.40;98471.38;5012916;28;20362;-84
2024/02/12 01:12:57;;;;;;;;;;;;;;;15.13;67.29;98464.78;4995167;28;19975;-84
2024/02/12 01:15:24;;;;;;;;;;;;;;;15.13;67.06;98462.94;4995198;28;19936;-84
2024/02/12 01:17:49;;;;;;;;;;;;;;;15.15;66.63;98463.50;4995146;28;19913;-84
2024/02/12 01:20:16;;;;;;;;;;;;;;;15.18;66.35;98473.66;4994842;28;19928;-83
2024/02/12 01:22:41;;;;;;;;;;;;;;;15.22;66.15;98456.22;4995139;28;19917;-84
2024/02/12 01:25:07;;;;;;;;;;;;;;;15.24;65.83;98461.28;5012561;28;20342;-85
2024/02/12 01:27:32;;;;;;;;;;;;;;;15.28;65.89;98459.78;4994942;28;19961;-84
2024/02/12 01:29:58;;;;;;;;;;;;;;;15.25;66.00;98461.06;5012705;28;19924;-84
2024/02/12 01:32:23;;;;;;;;;;;;;;;15.26;65.69;98441.41;5012782;28;19905;-83
2024/02/12 01:34:49;;;;;;;;;;;;;;;15.25;66.30;98436.31;4994969;28;19913;-83
2024/02/12 01:37:15;;;;;;;;;;;;;;;15.27;66.08;98432.38;5012850;28;19913;-83
2024/02/12 01:39:41;;;;;;;;;;;;;;;15.29;65.67;98434.81;4994663;28;19945;-84
2024/02/12 01:42:12;;;;;;;;;;;;;;;15.32;65.55;98420.22;5012259;28;19913;-83
2024/02/12 01:44:46;;;;;;;;;;;;;;;15.25;65.74;98423.81;5012378;28;19917;-84
2024/02/12 01:47:11;;;;;;;;;;;;;;;15.27;65.25;98416.41;5012114;28;20444;-83
2024/02/12 01:49:36;;;;;;;;;;;;;;;15.22;65.55;98410.19;5012395;28;19953;-83
2024/02/12 01:52:02;;;;;;;;;;;;;;;15.24;65.34;98408.91;5012596;28;19913;-83
2024/02/12 01:54:27;;;;;;;;;;;;;;;15.27;65.06;98408.44;4994665;28;20405;-83
2024/02/12 01:56:55;;;;;;;;;;;;;;;15.21;65.35;98404.06;4994539;28;19971;-83
2024/02/12 01:59:20;;;;;;;;;;;;;;;15.18;65.22;98396.56;5012280;28;20367;-84
2024/02/12 02:01:47;;;;;;;;;;;;;;;15.11;65.40;98395.88;4994617;28;19963;-84
2024/02/12 02:04:13;;;;;;;;;;;;;;;15.13;65.36;98401.78;5012043;28;19913;-83
2024/02/12 02:06:38;;;;;;;;;;;;;;;15.09;65.52;98395.31;4994296;28;20433;-84
2024/02/12 02:09:06;;;;;;;;;;;;;;;14.98;65.74;98408.63;5012127;28;19921;-84
2024/02/12 02:11:32;;;;;;;;;;;;;;;14.99;65.54;98399.63;4994441;28;19920;-83
2024/02/12 02:13:58;;;;;;;;;;;;;;;14.94;65.71;98398.47;4994412;28;19917;-84
2024/02/12 02:16:23;;;;;;;;;;;;;;;14.96;65.45;98387.59;5012090;28;20459;-83
2024/02/12 02:18:50;;;;;;;;;;;;;;;14.94;65.36;98384.38;4994326;28;19988;-84
2024/02/12 02:21:16;;;;;;;;;;;;;;;14.91;65.71;98390.16;5011867;28;19921;-84
2024/02/12 02:23:42;;;;;;;;;;;;;;;14.90;65.76;98378.72;5011807;28;20367;-84
2024/02/12 02:26:07;;;;;;;;;;;;;;;14.94;65.31;98389.69;5011918;28;19941;-83
2024/02/12 02:28:32;;;;;;;;;;;;;;;14.93;65.56;98385.41;5011815;28;19914;-84
2024/02/12 02:30:58;;;;;;;;;;;;;;;14.90;65.76;98385.88;5012281;28;19913;-84
2024/02/12 02:33:23;;;;;;;;;;;;;;;14.91;65.47;98377.69;5015727;28;19940;-84
2024/02/12 02:35:48;;;;;;;;;;;;;;;14.90;65.29;98370.75;5015791;28;20029;-84
2024/02/12 02:38:15;;;;;;;;;;;;;;;14.92;65.25;98359.88;5015991;28;20024;-84
2024/02/12 02:40:42;;;;;;;;;;;;;;;14.92;65.28;98363.34;4998141;28;19968;-84
2024/02/12 02:43:07;;;;;;;;;;;;;;;14.94;65.46;98363.13;4998130;28;20373;-84
2024/02/12 02:45:33;;;;;;;;;;;;;;;14.91;65.66;98361.72;4997999;28;19914;-84
2024/02/12 02:47:59;;;;;;;;;;;;;;;14.98;65.33;98336.88;5015622;28;19928;-84
2024/02/12 02:50:24;;;;;;;;;;;;;;;14.96;65.30;98334.44;5015876;28;19914;-83
2024/02/12 02:52:50;;;;;;;;;;;;;;;14.93;65.41;98345.56;5015694;28;20318;-84
2024/02/12 02:55:17;;;;;;;;;;;;;;;14.92;65.73;98326.13;4997950;28;19920;-84
2024/02/12 02:57:44;;;;;;;;;;;;;;;14.93;65.78;98326.94;5015701;28;19914;-84
2024/02/12 03:00:09;;;;;;;;;;;;;;;14.92;65.66;98339.44;4998212;28;19944;-84
2024/02/12 03:02:35;;;;;;;;;;;;;;;14.90;65.56;98328.22;5015861;28;19914;-83
2024/02/12 03:05:01;;;;;;;;;;;;;;;14.92;65.60;98317.34;4998121;28;19920;-84
2024/02/12 03:07:26;;;;;;;;;;;;;;;14.89;66.00;98336.44;5015778;28;19917;-84
2024/02/12 03:09:51;;;;;;;;;;;;;;;14.91;65.89;98343.13;5015257;28;20016;-84
2024/02/12 03:12:18;;;;;;;;;;;;;;;14.87;66.73;98347.28;5015216;28;20411;-83
2024/02/12 03:14:43;;;;;;;;;;;;;;;14.88;66.73;98342.78;4997555;28;19918;-84
2024/02/12 03:17:08;;;;;;;;;;;;;;;14.89;66.55;98347.06;4997599;28;19920;-83
2024/02/12 03:19:33;;;;;;;;;;;;;;;14.91;66.28;98348.44;5015067;28;20001;-84
2024/02/12 03:21:59;;;;;;;;;;;;;;;14.88;67.62;98350.75;4997418;28;19914;-84
2024/02/12 03:24:26;;;;;;;;;;;;;;;14.91;66.82;98359.06;5015002;28;19913;-83
2024/02/12 03:26:51;;;;;;;;;;;;;;;14.91;66.46;98359.06;5014790;28;19914;-81
2024/02/12 03:29:17;;;;;;;;;;;;;;;14.92;66.50;98362.53;5014850;28;19913;-78
2024/02/12 03:31:42;;;;;;;;;;;;;;;14.89;67.51;98366.47;5014777;28;19937;-82
2024/02/12 03:34:08;;;;;;;;;;;;;;;14.89;68.55;98352.38;5014702;28;19975;-82
2024/02/12 03:36:33;;;;;;;;;;;;;;;14.90;67.87;98362.78;5014945;28;19913;-82
2024/02/12 03:38:58;;;;;;;;;;;;;;;14.87;67.30;98357.94;4997077;28;20027;-82
2024/02/12 03:41:24;;;;;;;;;;;;;;;14.83;69.18;98363.91;5014386;28;19913;-82
2024/02/12 03:43:52;;;;;;;;;;;;;;;14.81;68.04;98366.81;4996743;28;20008;-83
2024/02/12 03:46:21;;;;;;;;;;;;;;;14.77;67.69;98359.53;4996965;28;19913;-83
2024/02/12 03:59:52;;;;;;;;;;;;;;;14.72;68.63;98364.75;5014565;28;20013;-83
2024/02/12 04:02:17;;;;;;;;;;;;;;;14.73;68.95;98382.31;4996608;28;19914;-83
2024/02/12 04:04:42;;;;;;;;;;;;;;;14.72;69.30;98372.72;5014203;28;20345;-83
2024/02/12 04:07:08;;;;;;;;;;;;;;;14.73;69.15;98391.06;5014333;28;19913;-82
2024/02/12 04:09:38;;;;;;;;;;;;;;;14.73;68.24;98372.47;5013890;28;19929;-83
2024/02/12 04:12:07;;;;;;;;;;;;;;;14.75;68.49;98372.25;5013997;28;19920;-82
2024/02/12 04:14:32;;;;;;;;;;;;;;;14.74;68.41;98360.81;5013858;28;20311;-83
2024/02/12 04:16:58;;;;;;;;;;;;;;;14.76;68.19;98368.53;5013808;28;19913;-83
2024/02/12 04:19:24;;;;;;;;;;;;;;;14.71;68.70;98376.41;5014194;28;19971;-83
2024/02/12 04:21:52;;;;;;;;;;;;;;;14.71;68.42;98371.91;5013923;28;19920;-83
2024/02/12 04:24:18;;;;;;;;;;;;;;;14.68;68.23;98356.44;5013846;28;19967;-82
2024/02/12 04:26:44;;;;;;;;;;;;;;;14.72;67.78;98359.44;5013882;28;19989;-83
2024/02/12 04:29:09;;;;;;;;;;;;;;;14.74;67.70;98346.72;5013754;28;19914;-83
2024/02/12 04:31:37;;;;;;;;;;;;;;;14.70;68.02;98335.75;5014347;28;19914;-83
2024/02/12 04:34:07;;;;;;;;;;;;;;;14.72;68.28;98331.00;4996008;28;19961;-83
2024/02/12 04:36:42;;;;;;;;;;;;;;;14.74;67.61;98344.88;4996098;28;19921;-83
2024/02/12 04:39:14;;;;;;;;;;;;;;;14.71;68.54;98336.56;5013898;28;19921;-81
2024/02/12 04:41:44;;;;;;;;;;;;;;;14.69;68.27;98333.31;5013361;28;19914;-82
2024/02/12 04:44:09;;;;;;;;;;;;;;;14.66;69.26;98323.16;4995842;28;19914;-83
2024/02/12 04:46:38;;;;;;;;;;;;;;;14.64;70.12;98315.44;5013263;28;19920;-83
2024/02/12 04:49:03;;;;;;;;;;;;;;;14.60;69.14;98312.44;4995739;28;19917;-83
2024/02/12 04:51:31;;;;;;;;;;;;;;;14.58;69.52;98303.91;5013461;28;19920;-82
2024/02/12 04:53:56;;;;;;;;;;;;;;;14.59;68.86;98337.38;5012440;28;19957;-82
2024/02/12 04:56:22;;;;;;;;;;;;;;;14.51;70.41;98327.13;5013234;28;20358;-80
2024/02/12 04:58:47;;;;;;;;;;;;;;;14.51;69.71;98307.72;5013365;28;20000;-82
2024/02/12 05:01:13;;;;;;;;;;;;;;;14.47;70.77;98310.03;4995635;28;19921;-82
2024/02/12 05:03:38;;;;;;;;;;;;;;;14.47;70.01;98322.50;5013328;28;19940;-82
2024/02/12 05:06:04;;;;;;;;;;;;;;;14.47;69.87;98327.81;4995738;28;20012;-81
2024/02/12 05:08:29;;;;;;;;;;;;;;;14.38;70.11;98319.38;5013251;28;19913;-81
2024/02/12 05:10:57;;;;;;;;;;;;;;;14.43;69.14;98326.66;5013166;28;19913;-82
2024/02/12 05:13:24;;;;;;;;;;;;;;;14.36;70.17;98320.63;4995265;28;20318;-83
2024/02/12 05:15:52;;;;;;;;;;;;;;;14.30;70.71;98312.56;5012694;28;19936;-83
2024/02/12 05:23:45;;;;;;;;;;;;;;;14.28;69.58;98305.88;5013117;28;20390;-82
2024/02/12 05:26:11;;;;;;;;;;;;;;;14.26;70.22;98307.94;5012690;28;19913;-83
2024/02/12 05:28:37;;;;;;;;;;;;;;;14.26;69.91;98308.75;4995704;28;19949;-82
2024/02/12 05:31:03;;;;;;;;;;;;;;;14.26;70.31;98306.09;5012533;28;20394;-82
2024/02/12 05:33:31;;;;;;;;;;;;;;;14.26;69.01;98329.19;5012376;28;20379;-82
2024/02/12 05:35:57;;;;;;;;;;;;;;;14.19;69.44;98349.72;4994901;28;19918;-82
2024/02/12 05:38:22;;;;;;;;;;;;;;;14.02;69.17;98351.41;4994985;28;19913;-81
2024/02/12 05:40:47;;;;;;;;;;;;;;;13.85;69.82;98343.31;4994898;28;20334;-81
2024/02/12 05:43:12;;;;;;;;;;;;;;;13.76;69.76;98348.16;5012675;28;19963;-81
2024/02/12 05:45:38;;;;;;;;;;;;;;;13.67;69.61;98347.66;4994904;28;20393;-81
2024/02/12 05:48:04;;;;;;;;;;;;;;;13.52;70.63;98365.03;5007387;28;19917;-81
2024/02/12 05:50:30;;;;;;;;;;;;;;;13.42;70.96;98357.63;4992665;28;19965;-81
2024/02/12 05:52:55;;;;;;;;;;;;;;;13.43;70.99;98350.47;4990693;28;19918;-82
2024/02/12 05:55:20;;;;;;;;;;;;;;;13.36;70.91;98367.25;4990400;28;19920;-82
2024/02/12 05:57:45;;;;;;;;;;;;;;;13.33;71.20;98359.75;4991921;28;19921;-81
2024/02/12 06:00:11;;;;;;;;;;;;;;;13.36;71.33;98351.34;4992594;28;19913;-81
2024/02/12 06:02:36;;;;;;;;;;;;;;;13.41;70.78;98365.81;4975943;28;20358;-82
2024/02/12 06:05:02;;;;;;;;;;;;;;;13.46;70.40;98371.25;4993472;28;20001;-82
2024/02/12 06:07:30;;;;;;;;;;;;;;;13.46;71.04;98390.59;5001886;28;19919;-81
2024/02/12 06:09:55;;;;;;;;;;;;;;;13.42;71.38;98378.03;4976721;28;20391;-80
2024/02/12 06:12:21;;;;;;;;;;;;;;;13.42;71.33;98370.06;4996759;28;19914;-80
2024/02/12 06:14:46;;;;;;;;;;;;;;;13.39;71.02;98379.28;5012151;28;19917;-81
2024/02/12 06:17:11;;;;;;;;;;;;;;;13.36;71.54;98382.34;5011932;28;19913;-81
2024/02/12 06:19:37;;;;;;;;;;;;;;;13.35;71.70;98408.06;5012046;28;19921;-81
2024/02/12 06:22:03;;;;;;;;;;;;;;;13.18;71.54;98419.50;5011864;28;19914;-80
2024/02/12 06:24:28;;;;;;;;;;;;;;;13.11;71.57;98411.59;5008052;28;19936;-81
2024/02/12 06:26:53;;;;;;;;;;;;;;;13.10;71.26;98411.81;4974825;28;19921;-81
2024/02/12 06:29:19;;;;;;;;;;;;;;;13.04;71.14;98413.50;4974815;28;19914;-80
2024/02/12 06:31:45;;;;;;;;;;;;;;;12.97;71.80;98415.41;4974835;28;19914;-81
2024/02/12 06:34:10;;;;;;;;;;;;;;;12.90;72.38;98417.34;4974633;28;19918;-82
2024/02/12 06:36:36;;;;;;;;;;;;;;;12.87;71.95;98404.53;4992455;28;19914;-81
2024/02/12 06:39:01;;;;;;;;;;;;;;;12.88;72.26;98406.94;4992149;28;19968;-83
2024/02/12 06:41:29;;;;;;;;;;;;;;;12.96;72.37;98405.84;4974606;28;20306;-82
2024/02/12 06:43:54;;;;;;;;;;;;;;;13.03;71.40;98398.63;4992029;28;19920;-84
2024/02/12 06:46:19;;;;;;;;;;;;;;;13.02;72.01;98402.31;4974473;28;19913;-83
2024/02/12 06:48:46;;;;;;;;;;;;;;;13.04;71.47;98403.72;4992029;28;20346;-83
2024/02/12 06:51:11;;;;;;;;;;;;;;;12.95;69.89;98405.03;4992011;28;19921;-84
2024/02/12 06:53:37;;;;;;;;;;;;;;;12.99;70.24;98416.81;4974834;28;20307;-84
2024/02/12 06:56:05;;;;;;;;;;;;;;;13.02;69.57;98421.66;4992124;28;20315;-84
2024/02/12 06:58:30;;;;;;;;;;;;;;;13.00;69.35;98429.03;4974580;28;19921;-84
2024/02/12 07:00:57;;;;;;;;;;;;;;;12.99;68.12;98442.50;4978161;28;19917;-85
2024/02/12 07:03:22;;;;;;;;;;;;;;;12.86;68.00;98464.66;4994020;28;19914;-84
2024/02/12 07:05:48;;;;;;;;;;;;;;;12.81;67.99;98459.19;5011290;28;19910;-84
2024/02/12 07:08:15;;;;;;;;;;;;;;;12.83;68.14;98461.63;4993520;28;20015;-85
2024/02/12 07:10:41;;;;;;;;;;;;;;;12.86;67.95;98469.13;5009678;28;20320;-85
2024/02/12 07:13:06;;;;;;;;;;;;;;;12.86;68.12;98458.53;5010467;28;19921;-85
2024/02/12 07:15:32;;;;;;;;;;;;;;;12.81;67.48;98448.59;4983834;28;19917;-84
2024/02/12 07:17:57;;;;;;;;;;;;;;;12.76;68.11;98416.66;5001444;28;19921;-84
2024/02/12 07:20:23;;;;;;;;;;;;;;;12.71;67.13;98405.91;4977865;28;19913;-84
2024/02/12 07:22:48;;;;;;;;;;;;;;;12.57;66.57;98349.59;4994193;28;20337;-84
2024/02/12 07:25:14;;;;;;;;;;;;;;;12.42;65.34;98330.63;5010842;28;19945;-82
2024/02/12 07:27:39;;;;;;;;;;;;;;;12.31;66.41;98303.03;5006171;28;19917;-84
2024/02/12 07:30:07;;;;;;;;;;;;;;;12.35;66.30;98287.53;5008551;28;19961;-84
2024/02/12 07:32:33;;;;;;;;;;;;;;;12.42;66.57;98288.25;5006753;28;19919;-85
2024/02/12 07:34:58;;;;;;;;;;;;;;;12.49;66.04;98296.13;5013970;28;19921;-85
2024/02/12 07:37:25;;;;;;;;;;;;;;;12.61;66.52;98320.84;5014207;28;19948;-84
2024/02/12 07:39:51;;;;;;;;;;;;;;;12.69;65.64;98331.97;4989455;28;20415;-86
2024/02/12 07:42:17;;;;;;;;;;;;;;;12.75;65.33;98329.47;4998528;28;19953;-88
2024/02/12 07:44:42;;;;;;;;;;;;;;;12.66;65.19;98342.22;5008092;28;19925;-87
2024/02/12 07:47:07;;;;;;;;;;;;;;;12.60;65.43;98346.50;4987131;28;19917;-83
2024/02/12 07:49:34;;;;;;;;;;;;;;;12.62;65.28;98352.41;5012388;28;19953;-86
2024/02/12 07:52:00;;;;;;;;;;;;;;;12.65;65.29;98354.63;4986014;28;20438;-87
2024/02/12 07:54:26;;;;;;;;;;;;;;;12.76;64.86;98353.09;4986550;28;19953;-87
2024/02/12 07:56:53;;;;;;;;;;;;;;;12.80;64.71;98356.09;4994871;28;20302;-87
2024/02/12 07:59:19;;;;;;;;;;;;;;;12.87;64.96;98367.44;4984180;28;19925;-87
2024/02/12 08:01:44;;;;;;;;;;;;;;;12.93;64.67;98366.56;4991377;28;20303;-86
2024/02/12 08:04:09;;;;;;;;;;;;;;;12.98;65.29;98370.16;4976890;28;20371;-85
2024/02/12 08:06:34;;;;;;;;;;;;;;;13.04;64.50;98368.47;4976782;28;20379;-85
2024/02/12 08:09:00;;;;;;;;;;;;;;;13.11;64.25;98366.53;4994083;28;19964;-86
2024/02/12 08:11:25;;;;;;;;;;;;;;;13.19;64.28;98368.09;4994027;28;20019;-85
2024/02/12 08:13:50;;;;;;;;;;;;;;;13.20;64.16;98367.88;4976506;28;19922;-84
2024/02/12 08:16:16;;;;;;;;;;;;;;;13.30;63.99;98370.81;4976376;28;19918;-83
2024/02/12 08:18:41;;;;;;;;;;;;;;;13.41;64.02;98387.81;4976281;28;19918;-84
2024/02/12 08:21:06;;;;;;;;;;;;;;;13.47;63.61;98404.69;4976751;28;19918;-85
2024/02/12 08:23:32;;;;;;;;;;;;;;;13.50;63.74;98415.66;4975883;28;19949;-85
2024/02/12 08:25:57;;;;;;;;;;;;;;;13.52;63.30;98410.13;4976788;28;19922;-85
2024/02/12 08:28:24;;;;;;;;;;;;;;;13.46;63.07;98416.31;4993137;28;19914;-84
2024/02/12 08:30:49;;;;;;;;;;;;;;;13.45;62.77;98417.34;4993644;28;19913;-84
2024/02/12 08:33:14;;;;;;;;;;;;;;;13.30;62.83;98407.09;4969262;28;19921;-85
2024/02/12 08:35:40;;;;;;;;;;;;;;;13.29;62.74;98421.41;4974148;28;20400;-85
2024/02/12 08:38:08;;;;;;;;;;;;;;;13.27;62.50;98431.41;4956777;28;19968;-85
2024/02/12 08:40:35;;;;;;;;;;;;;;;13.17;62.93;98434.59;4956885;28;19911;-86
2024/02/12 08:43:02;;;;;;;;;;;;;;;13.14;62.41;98445.59;4973463;28;19968;-86
2024/02/12 08:45:27;;;;;;;;;;;;;;;13.10;62.58;98451.56;4975856;28;19921;-85
2024/02/12 08:47:53;;;;;;;;;;;;;;;13.05;62.72;98454.88;4975706;28;19918;-86
2024/02/12 08:50:18;;;;;;;;;;;;;;;13.08;62.66;98454.44;4976167;28;19937;-86
2024/02/12 08:52:43;;;;;;;;;;;;;;;13.11;62.83;98451.34;4975955;28;20402;-85
2024/02/12 08:55:11;;;;;;;;;;;;;;;13.20;62.88;98439.44;4975950;28;19921;-86
2024/02/12 08:57:42;;;;;;;;;;;;;;;13.29;62.69;98439.94;4975515;28;19917;-86
2024/02/12 09:00:09;;;;;;;;;;;;;;;13.43;62.64;98445.94;4975843;28;19917;-84
2024/02/12 09:02:34;;;;;;;;;;;;;;;13.41;62.22;98432.09;4975860;28;19964;-85
2024/02/12 09:05:01;;;;;;;;;;;;;;;13.42;61.92;98420.44;4975707;28;20350;-85
2024/02/12 09:07:27;;;;;;;;;;;;;;;13.38;62.06;98419.25;4993199;28;19918;-85
2024/02/12 09:09:53;;;;;;;;;;;;;;;13.37;62.02;98426.38;4974531;28;20345;-86
2024/02/12 09:12:19;;;;;;;;;;;;;;;13.42;61.91;98433.69;4975099;28;19925;-85
2024/02/12 09:14:45;;;;;;;;;;;;;;;13.44;61.61;98429.00;4993134;28;20374;-85
2024/02/12 09:17:14;;;;;;;;;;;;;;;13.38;61.23;98429.84;4993397;28;20013;-85
2024/02/12 09:19:39;;;;;;;;;;;;;;;13.31;61.72;98417.50;4975634;28;19918;-84
2024/02/12 09:22:04;;;;;;;;;;;;;;;13.36;61.71;98411.50;4975383;28;19918;-84
2024/02/12 09:24:31;;;;;;;;;;;;;;;13.45;61.26;98406.75;4966073;28;19918;-83
2024/02/12 09:26:57;;;;;;;;;;;;;;;13.47;61.39;98394.06;4983495;28;19929;-85
2024/02/12 09:29:22;;;;;;;;;;;;;;;13.45;61.06;98391.63;4991664;28;20387;-84
2024/02/12 09:31:48;;;;;;;;;;;;;;;13.40;61.37;98393.34;4975667;28;19957;-83
2024/02/12 09:34:15;;;;;;;;;;;;;;;13.53;61.03;98382.56;4992962;28;19922;-85
2024/02/12 09:36:42;;;;;;;;;;;;;;;13.50;60.88;98378.53;4975406;28;19924;-83
2024/02/12 09:39:08;;;;;;;;;;;;;;;13.57;60.57;98365.16;4975651;28;20299;-84
2024/02/12 09:41:37;;;;;;;;;;;;;;;13.62;60.09;98350.19;4975012;28;19914;-83
2024/02/12 09:44:05;;;;;;;;;;;;;;;13.76;60.36;98353.44;4974956;28;20340;-84
2024/02/12 09:46:32;;;;;;;;;;;;;;;13.87;59.98;98344.72;4992082;28;19968;-85
2024/02/12 09:48:58;;;;;;;;;;;;;;;13.97;59.70;98333.53;4991348;28;19945;-84
2024/02/12 09:51:24;;;;;;;;;;;;;;;14.08;59.08;98345.19;4973941;28;20387;-84
2024/02/12 09:53:52;;;;;;;;;;;;;;;14.06;58.66;98355.22;4957846;28;20331;-84
2024/02/12 09:56:18;;;;;;;;;;;;;;;14.10;58.72;98349.22;4991042;28;20004;-86
2024/02/12 09:58:44;;;;;;;;;;;;;;;14.12;59.19;98346.34;4974724;28;19937;-84
2024/02/12 10:01:10;;;;;;;;;;;;;;;14.25;58.52;98341.66;4974311;28;20319;-84
2024/02/12 10:03:36;;;;;;;;;;;;;;;14.37;58.28;98356.78;4974682;28;19960;-84
2024/02/12 10:06:01;;;;;;;;;;;;;;;14.32;58.20;98346.84;4991745;28;19953;-85
2024/02/12 10:08:26;;;;;;;;;;;;;;;14.35;58.18;98346.38;4991964;28;20016;-84
2024/02/12 10:10:52;;;;;;;;;;;;;;;14.48;57.53;98335.56;4973898;28;19921;-85
2024/02/12 10:13:17;;;;;;;;;;;;;;;14.49;57.82;98334.50;4991610;28;19922;-84
2024/02/12 10:15:43;;;;;;;;;;;;;;;14.57;58.02;98339.47;4970384;28;19917;-84
2024/02/12 10:18:14;;;;;;;;;;;;;;;14.57;57.49;98346.63;4974222;28;19926;-84
2024/02/12 10:20:40;;;;;;;;;;;;;;;14.60;57.47;98354.94;4991983;28;20365;-84
2024/02/12 10:23:09;;;;;;;;;;;;;;;14.72;56.87;98354.13;4974374;28;19914;-85
2024/02/12 10:25:38;;;;;;;;;;;;;;;14.78;56.69;98356.66;4974591;28;19913;-84
2024/02/12 10:28:03;;;;;;;;;;;;;;;14.82;56.71;98357.78;4974379;28;19918;-85
2024/02/12 10:30:29;;;;;;;;;;;;;;;14.92;57.24;98343.94;4991934;28;19921;-85
2024/02/12 10:32:57;;;;;;;;;;;;;;;15.00;56.82;98356.84;4970243;28;19917;-85
2024/02/12 10:35:23;;;;;;;;;;;;;;;15.06;56.67;98353.25;4990895;28;19925;-85
2024/02/12 10:37:51;;;;;;;;;;;;;;;15.15;56.89;98343.88;4991858;28;19913;-85
2024/02/12 10:40:16;;;;;;;;;;;;;;;15.21;55.42;98344.75;4974074;28;20000;-83
2024/02/12 10:42:49;;;;;;;;;;;;;;;15.30;55.86;98346.00;4991481;28;20408;-84
2024/02/12 10:45:16;;;;;;;;;;;;;;;15.41;55.47;98347.00;4991451;28;19921;-84
2024/02/12 10:47:41;;;;;;;;;;;;;;;15.54;55.73;98362.66;4973994;28;19989;-83
2024/02/12 10:50:07;;;;;;;;;;;;;;;15.62;54.96;98364.19;4991544;28;20001;-84
2024/02/12 10:52:36;;;;;;;;;;;;;;;15.65;54.93;98364.53;4975743;28;19925;-84
2024/02/12 10:55:02;;;;;;;;;;;;;;;15.77;55.27;98359.94;4995418;28;19926;-84
2024/02/12 10:57:29;;;;;;;;;;;;;;;15.77;54.91;98354.63;4978235;28;19917;-84
2024/02/12 11:00:01;;;;;;;;;;;;;;;15.77;53.98;98365.25;4977399;28;20012;-84
2024/02/12 11:02:26;;;;;;;;;;;;;;;15.75;53.96;98350.59;4995363;28;20295;-83
2024/02/12 11:04:55;;;;;;;;;;;;;;;15.77;54.54;98351.97;4994643;28;19925;-83
2024/02/12 11:07:24;;;;;;;;;;;;;;;15.74;54.55;98341.78;4995639;28;19914;-83
2024/02/12 11:10:03;;;;;;;;;;;;;;;15.68;54.27;98337.44;4974938;28;19926;-83
2024/02/12 11:12:33;;;;;;;;;;;;;;;15.70;54.07;98337.19;4977429;28;19925;-83
2024/02/12 11:14:59;;;;;;;;;;;;;;;15.69;54.01;98341.72;4977208;28;20323;-82
2024/02/12 11:17:27;;;;;;;;;;;;;;;15.76;54.25;98338.88;4976626;28;19920;-83
2024/02/12 11:19:53;;;;;;;;;;;;;;;15.82;54.18;98337.94;4970474;28;20347;-82
2024/02/12 11:22:28;;;;;;;;;;;;;;;15.94;53.88;98324.53;4994226;28;19917;-83
2024/02/12 11:24:59;;;;;;;;;;;;;;;15.99;54.20;98319.28;4976058;28;19925;-82
2024/02/12 11:27:26;;;;;;;;;;;;;;;16.03;53.51;98320.41;4977153;28;19975;-83
2024/02/12 11:29:52;;;;;;;;;;;;;;;16.07;53.56;98318.88;4969004;28;19948;-82
2024/02/12 11:32:19;;;;;;;;;;;;;;;16.08;53.85;98315.19;4992454;28;20344;-84
2024/02/12 11:34:44;;;;;;;;;;;;;;;16.07;53.43;98306.38;4994574;28;19973;-82
2024/02/12 11:37:16;;;;;;;;;;;;;;;16.04;52.93;98308.72;4976981;28;20314;-82
2024/02/12 11:39:42;;;;;;;;;;;;;;;16.02;53.64;98302.84;4977044;28;19918;-84
2024/02/12 11:42:09;;;;;;;;;;;;;;;16.08;53.39;98296.53;4990285;28;20410;-83
2024/02/12 11:44:35;;;;;;;;;;;;;;;16.10;52.70;98294.44;4987503;28;19918;-81
2024/02/12 11:47:00;;;;;;;;;;;;;;;16.11;53.34;98288.06;4990546;28;19918;-82
2024/02/12 11:49:25;;;;;;;;;;;;;;;16.12;52.98;98282.50;4975035;28;20417;-83
2024/02/12 11:51:51;;;;;;;;;;;;;;;16.08;52.85;98278.69;4976371;28;20300;-83
2024/02/12 11:54:17;;;;;;;;;;;;;;;16.11;52.46;98275.56;4975751;28;19922;-82
2024/02/12 11:56:45;;;;;;;;;;;;;;;16.10;52.66;98276.59;4976592;28;19980;-83
2024/02/12 11:59:10;;;;;;;;;;;;;;;16.16;52.86;98272.16;4975862;28;19926;-82
2024/02/12 12:01:37;;;;;;;;;;;;;;;16.13;52.66;98267.31;4994422;28;19976;-83
2024/02/12 12:04:02;;;;;;;;;;;;;;;16.16;52.66;98272.16;4975134;28;19918;-83
2024/02/12 12:06:31;;;;;;;;;;;;;;;16.11;52.57;98272.09;4976713;28;19918;-82
2024/02/12 12:08:57;;;;;;;;;;;;;;;16.13;53.14;98268.13;4997821;28;19925;-83
2024/02/12 12:11:22;;;;;;;;;;;;;;;16.17;52.54;98273.78;5002808;28;20368;-82
2024/02/12 12:13:49;;;;;;;;;;;;;;;16.19;52.71;98271.66;5011818;28;19926;-82
2024/02/12 12:16:15;;;;;;;;;;;;;;;16.24;52.64;98276.25;4999770;28;19918;-82
2024/02/12 12:18:40;;;;;;;;;;;;;;;16.28;52.92;98277.38;4985573;28;19941;-83
2024/02/12 12:21:07;;;;;;;;;;;;;;;16.23;52.72;98262.13;4994801;28;19926;-83
2024/02/12 12:23:33;;;;;;;;;;;;;;;16.13;52.54;98270.78;4995161;28;20459;-85
2024/02/12 12:25:58;;;;;;;;;;;;;;;16.10;52.94;98270.47;4984741;28;19921;-83
2024/02/12 12:28:23;;;;;;;;;;;;;;;16.07;53.33;98265.63;4999678;28;19924;-83
2024/02/12 12:30:49;;;;;;;;;;;;;;;16.03;53.43;98264.50;5008385;28;19926;-84
2024/02/12 12:33:15;;;;;;;;;;;;;;;16.01;53.74;98259.44;4995592;28;20307;-83
2024/02/12 12:35:40;;;;;;;;;;;;;;;15.96;53.70;98256.69;4991755;28;19921;-84
2024/02/12 12:38:09;;;;;;;;;;;;;;;15.97;54.05;98268.16;5011891;28;19918;-83
2024/02/12 12:40:35;;;;;;;;;;;;;;;15.89;54.03;98262.19;4978368;28;19914;-83
2024/02/12 12:43:01;;;;;;;;;;;;;;;15.84;54.22;98262.13;4980569;28;19916;-84
2024/02/12 12:45:26;;;;;;;;;;;;;;;15.87;54.37;98250.97;5013301;28;19918;-84
2024/02/12 12:47:51;;;;;;;;;;;;;;;15.74;54.86;98259.28;5012961;28;19913;-84
2024/02/12 12:50:17;;;;;;;;;;;;;;;15.69;55.43;98259.22;5013118;28;19914;-84
2024/02/12 12:52:42;;;;;;;;;;;;;;;15.69;55.31;98255.75;5004549;28;19932;-83
2024/02/12 12:55:08;;;;;;;;;;;;;;;15.61;55.04;98259.63;4977788;28;19956;-84
2024/02/12 12:57:37;;;;;;;;;;;;;;;15.53;55.34;98263.44;5002401;28;19928;-83
2024/02/12 13:00:08;;;;;;;;;;;;;;;15.49;55.56;98259.63;5009312;28;19928;-83